createdAt,value
2023-01-20T00:00:38.280Z,0.75
2023-01-20T00:05:40.375Z,0.74
2023-01-20T00:10:42.395Z,0.74
2023-01-20T00:15:44.713Z,0.72
2023-01-20T00:20:46.857Z,0.72
2023-01-20T00:25:48.817Z,0.72
2023-01-20T00:30:50.851Z,0.69
2023-01-20T00:35:52.950Z,0.67
2023-01-20T00:40:55.445Z,0.69
2023-01-20T00:45:57.445Z,0.65
2023-01-20T00:50:59.461Z,0.67
2023-01-20T00:56:01.565Z,0.65
2023-01-20T01:01:04.037Z,0.63
2023-01-20T01:06:14.600Z,0.64
2023-01-20T01:11:16.612Z,0.62
2023-01-20T01:16:18.702Z,0.61
2023-01-20T01:21:23.747Z,0.59
2023-01-20T01:26:25.813Z,0.60
2023-01-20T01:31:27.859Z,0.56
2023-01-20T01:36:29.867Z,0.56
2023-01-20T01:41:32.102Z,0.57
2023-01-20T01:46:34.510Z,0.48
2023-01-20T01:51:41.905Z,0.52
2023-01-20T01:56:46.707Z,0.52
2023-01-20T02:07:53.677Z,0.48
2023-01-20T02:12:56.114Z,0.48
2023-01-20T02:18:37.155Z,0.47
2023-01-20T02:24:14.559Z,0.45
2023-01-20T02:29:31.737Z,0.44
2023-01-20T02:34:44.135Z,0.40
2023-01-20T02:40:17.382Z,0.39
2023-01-20T02:45:45.523Z,0.39
2023-01-20T02:50:56.712Z,0.37
2023-01-20T02:55:59.281Z,0.33
2023-01-20T03:01:30.832Z,0.33
2023-01-20T03:06:38.287Z,0.32
2023-01-20T03:11:47.355Z,0.27
2023-01-20T03:16:50.623Z,0.25
2023-01-20T03:21:52.890Z,0.20
2023-01-20T03:26:55.104Z,0.19
2023-01-20T03:32:00.116Z,0.13
2023-01-20T03:37:04.227Z,0.14
2023-01-20T03:42:16.192Z,0.10
2023-01-20T03:47:18.209Z,0.06
2023-01-20T03:52:47.064Z,0.01
2023-01-20T03:57:58.883Z,-0.03
2023-01-20T04:03:05.586Z,-0.09
2023-01-20T04:08:10.352Z,-0.10
2023-01-20T04:13:12.476Z,-0.15
2023-01-20T04:18:21.371Z,-0.18
2023-01-20T04:24:11.735Z,-0.25
2023-01-20T04:29:13.746Z,-0.30
2023-01-20T04:34:16.081Z,-0.34
2023-01-20T04:39:18.074Z,-0.37
2023-01-20T04:44:20.101Z,-0.40
2023-01-20T04:49:22.148Z,-0.43
2023-01-20T04:54:24.233Z,-0.47
2023-01-20T04:59:26.795Z,-0.49
2023-01-20T05:04:28.946Z,-0.52
2023-01-20T05:09:30.932Z,-0.54
2023-01-20T05:14:32.978Z,-0.54
2023-01-20T05:19:34.991Z,-0.55
2023-01-20T05:24:37.058Z,-0.57
2023-01-20T05:29:39.080Z,-0.58
2023-01-20T05:34:41.133Z,-0.60
2023-01-20T05:39:43.173Z,-0.63
2023-01-20T05:44:45.254Z,-0.63
2023-01-20T05:49:47.465Z,-0.61
2023-01-20T05:54:49.564Z,-0.63
2023-01-20T05:59:52.596Z,-0.62
2023-01-20T06:04:56.332Z,-0.64
2023-01-20T06:09:58.740Z,-0.65
2023-01-20T06:15:00.787Z,-0.64
2023-01-20T06:20:04.676Z,-0.64
2023-01-20T06:25:07.092Z,-0.66
2023-01-20T06:30:09.986Z,-0.67
2023-01-20T06:35:12.357Z,-0.67
2023-01-20T06:40:15.363Z,-0.70
2023-01-20T06:45:17.527Z,-0.68
2023-01-20T06:50:19.769Z,-0.68
2023-01-20T06:55:22.155Z,-0.70
2023-01-20T07:00:24.512Z,-0.69
2023-01-20T07:05:26.578Z,-0.68
2023-01-20T07:10:28.669Z,-0.76
2023-01-20T07:15:30.813Z,-0.73
2023-01-20T07:20:32.976Z,-0.68
2023-01-20T07:25:35.122Z,0.58
2023-01-20T07:30:37.520Z,2.44
2023-01-20T07:35:39.750Z,4.13
2023-01-20T07:40:41.834Z,5.38
2023-01-20T07:45:44.909Z,6.51
2023-01-20T07:50:47.426Z,7.52
2023-01-20T07:55:49.612Z,8.57
2023-01-20T08:00:51.879Z,9.50
2023-01-20T08:05:54.133Z,10.37
2023-01-20T08:10:56.318Z,11.26
2023-01-20T08:16:05.844Z,12.18
2023-01-20T08:21:16.492Z,12.93
2023-01-20T08:26:19.795Z,13.62
2023-01-20T08:31:26.098Z,14.30
2023-01-20T08:36:31.270Z,15.06
2023-01-20T08:41:36.840Z,15.60
2023-01-20T08:46:41.841Z,16.18
2023-01-20T08:51:45.367Z,16.82
2023-01-20T08:56:51.370Z,17.25
2023-01-20T09:01:53.476Z,17.81
2023-01-20T09:06:55.581Z,18.25
2023-01-20T09:11:57.728Z,18.74
2023-01-20T09:17:02.003Z,19.09
2023-01-20T09:22:04.459Z,19.47
2023-01-20T09:27:06.446Z,18.95
2023-01-20T09:32:08.662Z,18.98
2023-01-20T09:37:29.064Z,19.66
2023-01-20T09:43:09.975Z,20.12
2023-01-20T09:48:55.522Z,20.65
2023-01-20T09:54:07.627Z,21.11
2023-01-20T09:59:26.908Z,21.56
2023-01-20T10:04:45.883Z,21.89
2023-01-20T10:10:24.631Z,22.24
2023-01-20T10:15:36.404Z,22.32
2023-01-20T10:20:41.944Z,22.54
2023-01-20T10:26:10.643Z,22.39
2023-01-20T10:31:18.268Z,21.98
2023-01-20T10:36:27.687Z,21.29
2023-01-20T10:41:32.862Z,20.50
2023-01-20T10:47:05.081Z,19.64
2023-01-20T10:52:13.267Z,18.82
2023-01-20T10:57:16.468Z,18.15
2023-01-20T11:02:25.125Z,16.17
2023-01-20T11:07:29.107Z,16.42
2023-01-20T11:12:37.272Z,16.01
2023-01-20T11:17:39.447Z,15.57
2023-01-20T11:22:49.787Z,13.97
2023-01-20T11:27:53.025Z,14.16
2023-01-20T11:33:14.448Z,13.78
2023-01-20T14:01:15.278Z,6.41
2023-01-20T14:06:24.067Z,6.26
2023-01-20T14:11:28.019Z,6.11
2023-01-20T14:16:42.079Z,6.02
2023-01-20T14:21:44.227Z,6.05
2023-01-20T14:26:46.318Z,5.98
2023-01-20T14:31:48.587Z,5.86
2023-01-20T14:36:51.952Z,5.62
2023-01-20T14:41:57.047Z,5.52
2023-01-20T14:47:02.788Z,5.47
2023-01-20T14:57:31.720Z,5.28
2023-01-20T15:02:37.990Z,5.19
2023-01-20T15:07:40.148Z,5.08
2023-01-20T15:12:45.243Z,5.01
2023-01-20T15:18:21.750Z,4.88
2023-01-20T15:23:39.230Z,4.77
2023-01-20T15:28:45.191Z,4.69
2023-01-20T15:33:47.297Z,4.60
2023-01-20T15:38:49.959Z,4.52
2023-01-20T15:43:52.812Z,4.42
2023-01-20T15:48:54.844Z,4.34
2023-01-20T15:53:57.006Z,4.21
2023-01-20T15:58:59.550Z,4.16
2023-01-20T16:04:01.841Z,4.10
2023-01-20T16:09:16.507Z,4.01
2023-01-20T16:14:18.954Z,3.87
2023-01-20T16:19:21.127Z,3.85
2023-01-20T16:24:23.163Z,3.77
2023-01-20T16:29:25.450Z,3.70
2023-01-20T16:34:27.637Z,3.60
2023-01-20T16:39:30.075Z,3.53
2023-01-20T16:44:32.256Z,3.48
2023-01-20T16:49:34.613Z,3.41
2023-01-20T16:54:37.257Z,3.35
2023-01-20T16:59:39.579Z,3.19
2023-01-20T17:04:41.955Z,4.05
2023-01-20T17:09:44.204Z,4.31
2023-01-20T17:14:46.724Z,4.56
2023-01-20T17:19:49.108Z,4.82
2023-01-20T17:24:52.094Z,5.22
2023-01-20T17:29:54.987Z,5.56
2023-01-20T17:34:57.916Z,5.88
2023-01-20T17:40:05.802Z,7.15
2023-01-20T17:45:10.383Z,8.46
2023-01-20T17:50:15.191Z,9.56
2023-01-20T17:55:18.364Z,10.52
2023-01-20T18:00:21.626Z,11.30
2023-01-20T18:05:24.857Z,12.12
2023-01-20T18:10:28.205Z,12.76
2023-01-20T18:15:30.893Z,12.71
2023-01-20T18:20:33.957Z,11.38
2023-01-20T18:25:36.888Z,11.52
2023-01-20T18:30:40.482Z,11.41
2023-01-20T18:35:44.797Z,11.25
2023-01-20T18:40:47.983Z,11.02
2023-01-20T18:45:54.327Z,10.74
2023-01-20T18:51:01.520Z,10.46
2023-01-20T18:56:13.470Z,10.21
2023-01-20T19:01:25.351Z,9.91
2023-01-20T19:06:33.307Z,9.64
2023-01-20T19:11:41.684Z,9.38
2023-01-20T19:16:49.633Z,9.13
2023-01-20T19:21:53.988Z,8.88
2023-01-20T19:26:58.916Z,8.61
2023-01-20T19:32:07.108Z,8.42
2023-01-20T19:37:10.822Z,8.18
2023-01-20T19:42:14.758Z,7.98
2023-01-20T19:47:18.043Z,7.77
2023-01-20T19:52:20.946Z,7.58
2023-01-20T19:57:24.574Z,7.38
2023-01-20T20:02:31.551Z,7.19
2023-01-20T20:07:46.094Z,7.05
2023-01-20T20:12:57.701Z,6.84
2023-01-20T20:18:00.883Z,6.67
2023-01-20T20:23:05.994Z,6.53
2023-01-20T20:28:10.138Z,6.38
2023-01-20T20:33:13.835Z,6.25
2023-01-20T20:38:17.320Z,6.09
2023-01-20T20:43:24.299Z,5.99
2023-01-20T20:48:28.649Z,5.85
2023-01-20T20:53:32.566Z,5.70
2023-01-20T20:58:43.343Z,5.59
2023-01-20T21:03:52.219Z,5.47
2023-01-20T21:08:55.574Z,5.35
2023-01-20T21:13:58.660Z,5.25
2023-01-20T21:19:03.705Z,5.18
2023-01-20T21:24:11.924Z,5.05
2023-01-20T21:29:27.332Z,4.96
2023-01-20T21:34:33.431Z,4.84
2023-01-20T21:39:38.825Z,4.73
2023-01-20T21:44:46.018Z,4.64
2023-01-20T21:50:07.610Z,4.56
2023-01-20T21:55:20.538Z,4.48
2023-01-20T22:00:23.526Z,4.37
2023-01-20T22:05:26.108Z,4.29
2023-01-20T22:10:29.699Z,4.22
2023-01-20T22:15:40.362Z,4.15
2023-01-20T22:20:44.726Z,4.07
2023-01-20T22:25:59.379Z,4.00
2023-01-20T22:31:10.665Z,3.94
2023-01-20T22:36:13.084Z,3.87
2023-01-20T22:41:18.862Z,3.80
2023-01-20T22:46:22.355Z,3.72
2023-01-20T22:51:33.826Z,3.63
2023-01-20T22:56:36.198Z,3.60
2023-01-20T23:01:38.234Z,3.54
2023-01-20T23:06:40.428Z,3.44
2023-01-20T23:11:42.495Z,3.41
2023-01-20T23:16:44.673Z,3.34
2023-01-20T23:21:46.802Z,3.28
2023-01-20T23:26:50.929Z,3.23
2023-01-20T23:31:55.602Z,3.17
2023-01-20T23:36:57.734Z,3.11
2023-01-20T23:41:59.896Z,3.05
2023-01-20T23:47:01.944Z,3.00
2023-01-20T23:52:05.097Z,2.92
2023-01-20T23:57:07.157Z,2.87
